createdAt,value
2019-02-25T00:00:44.947Z,0.00
2019-02-25T00:01:44.995Z,0.00
2019-02-25T00:03:37.975Z,0.00
2019-02-25T00:04:38.024Z,0.00
2019-02-25T00:06:31.001Z,0.00
2019-02-25T00:07:31.054Z,0.00
2019-02-25T00:09:24.040Z,0.00
2019-02-25T00:10:24.092Z,0.00
2019-02-25T00:12:17.061Z,0.00
2019-02-25T00:13:17.117Z,0.00
2019-02-25T00:15:10.104Z,0.00
2019-02-25T00:16:10.145Z,0.00
2019-02-25T00:18:03.133Z,0.00
2019-02-25T00:19:03.189Z,0.00
2019-02-25T00:20:56.168Z,0.00
2019-02-25T00:21:56.221Z,0.00
2019-02-25T00:23:49.201Z,0.00
2019-02-25T00:24:49.246Z,0.00
2019-02-25T00:26:42.213Z,0.00
2019-02-25T00:27:42.275Z,0.00
2019-02-25T00:29:35.252Z,0.00
2019-02-25T00:30:35.304Z,0.00
2019-02-25T00:32:28.279Z,0.00
2019-02-25T00:33:28.333Z,0.00
2019-02-25T00:35:21.312Z,0.00
2019-02-25T00:36:21.363Z,0.00
2019-02-25T00:38:14.338Z,0.00
2019-02-25T00:39:14.394Z,0.00
2019-02-25T00:41:07.374Z,0.00
2019-02-25T00:42:07.425Z,0.00
2019-02-25T00:44:00.423Z,0.00
2019-02-25T00:45:00.454Z,0.00
2019-02-25T00:46:53.441Z,0.00
2019-02-25T00:47:53.486Z,0.00
2019-02-25T00:49:46.472Z,0.00
2019-02-25T00:50:46.514Z,0.00
2019-02-25T00:52:39.491Z,0.00
2019-02-25T00:53:39.544Z,0.00
2019-02-25T00:55:33.044Z,0.00
2019-02-25T00:56:33.092Z,0.00
2019-02-25T00:58:26.061Z,0.00
2019-02-25T00:59:26.117Z,0.00
2019-02-25T01:01:19.097Z,0.00
2019-02-25T01:02:19.142Z,0.00
2019-02-25T01:04:12.131Z,0.00
2019-02-25T01:05:12.181Z,0.00
2019-02-25T01:07:05.155Z,0.00
2019-02-25T01:08:05.209Z,0.00
2019-02-25T01:09:58.189Z,0.00
2019-02-25T01:10:58.241Z,0.00
2019-02-25T01:12:51.211Z,0.00
2019-02-25T01:13:51.266Z,0.00
2019-02-25T01:15:44.248Z,0.00
2019-02-25T01:16:44.295Z,0.00
2019-02-25T01:18:37.270Z,0.00
2019-02-25T01:19:37.327Z,0.00
2019-02-25T01:21:30.321Z,0.00
2019-02-25T01:22:30.356Z,0.00
2019-02-25T01:24:23.336Z,0.00
2019-02-25T01:25:23.390Z,0.00
2019-02-25T01:27:16.378Z,0.00
2019-02-25T01:28:16.436Z,0.00
2019-02-25T01:30:09.421Z,0.00
2019-02-25T01:31:09.470Z,0.00
2019-02-25T01:33:02.442Z,0.00
2019-02-25T01:34:02.497Z,0.00
2019-02-25T01:35:55.476Z,0.00
2019-02-25T01:36:55.527Z,0.00
2019-02-25T01:38:48.504Z,0.00
2019-02-25T01:39:48.560Z,0.00
2019-02-25T01:41:41.546Z,0.00
2019-02-25T01:42:41.597Z,0.00
2019-02-25T01:44:34.580Z,0.00
2019-02-25T01:45:34.625Z,0.00
2019-02-25T01:47:27.601Z,0.00
2019-02-25T01:48:27.655Z,0.00
2019-02-25T01:50:20.633Z,0.00
2019-02-25T01:51:22.193Z,0.00
2019-02-25T01:53:13.678Z,0.00
2019-02-25T01:54:13.712Z,0.00
2019-02-25T01:56:07.209Z,0.00
2019-02-25T01:57:07.250Z,0.00
2019-02-25T01:59:00.245Z,0.00
2019-02-25T02:00:00.349Z,0.00
2019-02-25T02:01:53.280Z,0.00
2019-02-25T02:02:53.331Z,0.00
2019-02-25T02:04:46.319Z,0.00
2019-02-25T02:05:46.367Z,0.00
2019-02-25T02:07:39.345Z,0.00
2019-02-25T02:08:39.394Z,0.00
2019-02-25T02:10:32.375Z,0.00
2019-02-25T02:11:32.422Z,0.00
2019-02-25T02:13:25.399Z,0.00
2019-02-25T02:14:25.511Z,0.00
2019-02-25T02:16:18.439Z,0.00
2019-02-25T02:17:18.483Z,0.00
2019-02-25T02:19:11.456Z,0.00
2019-02-25T02:20:11.514Z,0.00
2019-02-25T02:22:04.491Z,0.00
2019-02-25T02:23:04.538Z,0.00
2019-02-25T02:24:57.529Z,0.00
2019-02-25T02:25:57.570Z,0.00
2019-02-25T02:27:50.550Z,0.00
2019-02-25T02:28:50.620Z,0.00
2019-02-25T02:30:43.595Z,0.00
2019-02-25T02:31:43.646Z,0.00
2019-02-25T02:33:36.620Z,0.00
2019-02-25T02:34:36.674Z,0.00
2019-02-25T02:36:29.657Z,0.00
2019-02-25T02:37:29.705Z,0.00
2019-02-25T02:39:22.675Z,0.00
2019-02-25T02:40:22.729Z,0.00
2019-02-25T02:42:15.710Z,0.00
2019-02-25T02:43:15.759Z,0.00
2019-02-25T02:45:08.739Z,0.00
2019-02-25T02:46:08.790Z,0.00
2019-02-25T02:48:01.767Z,0.00
2019-02-25T02:49:01.818Z,0.00
2019-02-25T02:50:54.813Z,0.00
2019-02-25T02:51:54.857Z,0.00
2019-02-25T02:53:47.823Z,0.00
2019-02-25T02:54:47.878Z,0.00
2019-02-25T02:56:40.877Z,0.00
2019-02-25T02:57:40.922Z,0.00
2019-02-25T02:59:33.895Z,0.00
2019-02-25T03:00:33.944Z,0.00
2019-02-25T03:02:26.934Z,0.00
2019-02-25T03:03:26.978Z,0.00
2019-02-25T03:05:20.004Z,0.00
2019-02-25T03:06:20.004Z,0.00
2019-02-25T03:08:12.975Z,0.00
2019-02-25T03:09:13.034Z,0.00
2019-02-25T03:11:06.008Z,0.00
2019-02-25T03:12:06.058Z,0.00
2019-02-25T03:13:59.050Z,0.00
2019-02-25T03:14:59.083Z,0.00
2019-02-25T03:16:52.067Z,0.00
2019-02-25T03:17:52.140Z,0.00
2019-02-25T03:19:45.098Z,0.00
2019-02-25T03:20:45.143Z,0.00
2019-02-25T03:22:38.126Z,0.00
2019-02-25T03:23:38.173Z,0.00
2019-02-25T03:25:31.157Z,0.00
2019-02-25T03:26:31.200Z,0.00
2019-02-25T03:28:24.185Z,0.00
2019-02-25T03:29:24.227Z,0.00
2019-02-25T03:31:17.249Z,0.00
2019-02-25T03:32:17.253Z,0.00
2019-02-25T03:34:10.258Z,0.00
2019-02-25T03:35:10.288Z,0.00
2019-02-25T03:37:03.268Z,0.00
2019-02-25T03:38:03.315Z,0.00
2019-02-25T03:39:56.289Z,0.00
2019-02-25T03:40:56.344Z,0.00
2019-02-25T03:42:49.333Z,0.00
2019-02-25T03:43:49.371Z,0.00
2019-02-25T03:45:42.359Z,0.00
2019-02-25T03:46:42.408Z,0.00
2019-02-25T03:48:35.380Z,0.00
2019-02-25T03:49:35.456Z,0.00
2019-02-25T03:51:28.421Z,0.00
2019-02-25T03:52:28.460Z,0.00
2019-02-25T03:54:21.433Z,0.00
2019-02-25T03:55:21.490Z,0.00
2019-02-25T03:57:14.472Z,0.00
2019-02-25T03:58:14.518Z,0.00
2019-02-25T04:00:07.492Z,0.00
2019-02-25T04:01:07.546Z,0.00
2019-02-25T04:03:00.523Z,0.00
2019-02-25T04:04:00.571Z,0.00
2019-02-25T04:05:53.551Z,0.00
2019-02-25T04:06:53.597Z,0.00
2019-02-25T04:08:46.590Z,0.00
2019-02-25T04:09:46.624Z,0.00
2019-02-25T04:11:39.603Z,0.00
2019-02-25T04:12:39.650Z,0.00
2019-02-25T04:14:32.626Z,0.00
2019-02-25T04:15:32.678Z,0.00
2019-02-25T04:17:25.659Z,0.00
2019-02-25T04:18:25.703Z,0.00
2019-02-25T04:20:18.693Z,0.00
2019-02-25T04:21:18.748Z,0.00
2019-02-25T04:23:11.712Z,0.00
2019-02-25T04:24:11.749Z,0.00
2019-02-25T04:26:04.737Z,0.00
2019-02-25T04:27:04.785Z,0.00
2019-02-25T04:28:57.755Z,0.00
2019-02-25T04:29:57.810Z,0.00
2019-02-25T04:31:50.788Z,0.00
2019-02-25T04:32:50.836Z,0.00
2019-02-25T04:34:43.813Z,0.00
2019-02-25T04:35:43.865Z,0.00
2019-02-25T04:37:36.852Z,0.00
2019-02-25T04:38:36.894Z,0.00
2019-02-25T04:40:29.870Z,0.00
2019-02-25T04:41:29.945Z,0.00
2019-02-25T04:43:22.915Z,0.00
2019-02-25T04:44:22.973Z,0.00
2019-02-25T04:46:15.941Z,0.00
2019-02-25T04:47:15.992Z,0.00
2019-02-25T04:49:08.964Z,0.00
2019-02-25T04:50:09.017Z,0.00
2019-02-25T04:52:01.999Z,0.00
2019-02-25T04:53:02.044Z,0.00
2019-02-25T04:54:55.018Z,0.00
2019-02-25T04:55:55.071Z,0.00
2019-02-25T04:57:48.050Z,0.00
2019-02-25T04:58:48.099Z,0.00
2019-02-25T05:00:41.072Z,0.00
2019-02-25T05:01:41.126Z,0.00
2019-02-25T05:03:34.103Z,0.00
2019-02-25T05:04:34.158Z,0.00
2019-02-25T05:06:27.130Z,0.00
2019-02-25T05:07:27.178Z,0.00
2019-02-25T05:09:20.151Z,0.00
2019-02-25T05:10:20.216Z,0.00
2019-02-25T05:12:13.186Z,0.00
2019-02-25T05:13:13.238Z,0.00
2019-02-25T05:15:06.209Z,0.00
2019-02-25T05:16:06.287Z,0.00
2019-02-25T05:17:59.271Z,0.00
2019-02-25T05:18:59.286Z,0.00
2019-02-25T05:20:52.254Z,0.00
2019-02-25T05:21:52.310Z,0.00
2019-02-25T05:23:45.289Z,0.00
2019-02-25T05:24:45.336Z,0.00
2019-02-25T05:26:38.315Z,0.00
2019-02-25T05:27:38.370Z,0.00
2019-02-25T05:29:31.350Z,0.00
2019-02-25T05:30:31.398Z,0.00
2019-02-25T05:32:24.377Z,0.00
2019-02-25T05:33:24.424Z,0.00
2019-02-25T05:35:17.393Z,0.00
2019-02-25T05:36:17.446Z,0.00
2019-02-25T05:38:10.442Z,0.00
2019-02-25T05:39:10.476Z,0.00
2019-02-25T05:41:03.447Z,0.00
2019-02-25T05:42:03.507Z,0.00
2019-02-25T05:43:56.510Z,0.00
2019-02-25T05:44:56.625Z,0.00
2019-02-25T05:46:49.543Z,0.00
2019-02-25T05:47:49.586Z,0.00
2019-02-25T05:49:42.563Z,0.00
2019-02-25T05:50:42.622Z,0.00
2019-02-25T05:52:35.601Z,0.00
2019-02-25T05:53:35.650Z,0.00
2019-02-25T05:55:29.134Z,4.00
2019-02-25T05:56:29.182Z,4.00
2019-02-25T05:58:22.173Z,4.00
2019-02-25T05:59:22.214Z,4.00
2019-02-25T06:01:15.178Z,4.00
2019-02-25T06:02:15.241Z,4.00
2019-02-25T06:04:08.219Z,8.00
2019-02-25T06:05:08.269Z,12.00
2019-02-25T06:07:01.254Z,12.00
2019-02-25T06:08:01.301Z,16.00
2019-02-25T06:09:54.278Z,24.00
2019-02-25T06:10:54.334Z,24.00
2019-02-25T06:12:47.319Z,40.00
2019-02-25T06:13:47.358Z,44.00
2019-02-25T06:15:40.341Z,56.00
2019-02-25T06:16:40.393Z,64.00
2019-02-25T06:18:33.369Z,80.00
2019-02-25T06:19:33.433Z,88.00
2019-02-25T06:21:26.398Z,112.00
2019-02-25T06:22:26.451Z,124.00
2019-02-25T06:24:19.429Z,148.00
2019-02-25T06:25:19.479Z,164.00
2019-02-25T06:27:12.455Z,196.00
2019-02-25T06:28:12.503Z,216.00
2019-02-25T06:30:05.493Z,252.00
2019-02-25T06:31:05.529Z,276.00
2019-02-25T06:32:58.514Z,324.00
2019-02-25T06:33:58.555Z,348.00
2019-02-25T06:35:51.529Z,400.00
2019-02-25T06:36:51.584Z,420.00
2019-02-25T06:38:44.579Z,468.00
2019-02-25T06:39:44.628Z,496.00
2019-02-25T06:41:37.598Z,548.00
2019-02-25T06:42:37.654Z,572.00
2019-02-25T06:44:30.635Z,624.00
2019-02-25T06:45:31.276Z,652.00
2019-02-25T06:47:23.660Z,704.00
2019-02-25T06:48:23.708Z,736.00
2019-02-25T06:50:16.678Z,784.00
2019-02-25T06:51:16.733Z,812.00
2019-02-25T06:53:09.713Z,880.00
2019-02-25T06:54:09.759Z,908.00
2019-02-25T06:56:03.243Z,972.00
2019-02-25T06:57:03.292Z,1012.00
2019-02-25T06:58:56.299Z,1068.00
2019-02-25T06:59:56.347Z,1108.00
2019-02-25T07:01:49.317Z,1184.00
2019-02-25T07:02:49.372Z,1220.00
2019-02-25T07:04:42.350Z,1288.00
2019-02-25T07:05:42.400Z,1320.00
2019-02-25T07:07:35.379Z,1388.00
2019-02-25T07:08:35.425Z,1416.00
2019-02-25T07:10:28.431Z,1472.00
2019-02-25T07:11:28.488Z,1508.00
2019-02-25T07:13:21.481Z,1568.00
2019-02-25T07:14:21.515Z,1600.00
2019-02-25T07:16:14.490Z,1652.00
2019-02-25T07:17:14.542Z,1676.00
2019-02-25T07:19:07.526Z,1728.00
2019-02-25T07:20:07.577Z,1752.00
2019-02-25T07:22:00.550Z,1788.00
2019-02-25T07:23:00.608Z,1812.00
2019-02-25T07:24:53.601Z,1856.00
2019-02-25T07:25:53.627Z,1880.00
2019-02-25T07:27:46.606Z,1916.00
2019-02-25T07:28:46.654Z,1932.00
2019-02-25T07:30:39.631Z,1948.00
2019-02-25T07:31:39.690Z,1960.00
2019-02-25T07:33:32.670Z,1980.00
2019-02-25T07:34:32.720Z,2008.00
2019-02-25T07:36:25.693Z,2048.00
2019-02-25T07:37:25.745Z,2068.00
2019-02-25T07:39:18.729Z,2112.00
2019-02-25T07:40:18.773Z,2148.00
2019-02-25T07:42:11.768Z,2268.00
2019-02-25T07:43:11.799Z,2372.00
2019-02-25T07:45:04.784Z,2768.00
2019-02-25T07:46:04.845Z,3128.00
2019-02-25T07:47:57.814Z,4628.00
2019-02-25T07:48:57.858Z,5892.00
2019-02-25T07:50:50.831Z,6888.00
2019-02-25T07:51:50.883Z,7036.00
2019-02-25T07:53:43.874Z,7340.00
2019-02-25T07:54:43.917Z,7324.00
2019-02-25T07:56:36.892Z,7460.00
2019-02-25T07:57:36.947Z,7520.00
2019-02-25T07:59:29.923Z,7992.00
2019-02-25T08:00:29.974Z,8252.00
2019-02-25T08:02:22.951Z,8360.00
2019-02-25T08:03:23.006Z,8340.00
2019-02-25T08:05:15.993Z,8064.00
2019-02-25T08:06:16.046Z,8120.00
2019-02-25T08:08:09.029Z,8320.00
2019-02-25T08:09:09.078Z,8376.00
2019-02-25T08:11:02.055Z,8372.00
2019-02-25T08:12:02.113Z,8364.00
2019-02-25T08:13:55.101Z,8328.00
2019-02-25T08:14:55.148Z,8240.00
2019-02-25T08:16:48.130Z,8132.00
2019-02-25T08:17:48.183Z,8120.00
2019-02-25T08:19:41.177Z,8212.00
2019-02-25T08:20:41.228Z,8260.00
2019-02-25T08:22:34.207Z,8380.00
2019-02-25T08:23:34.266Z,8396.00
2019-02-25T08:25:27.252Z,8436.00
2019-02-25T08:26:27.303Z,8424.00
2019-02-25T08:28:20.292Z,8372.00
2019-02-25T08:29:20.340Z,8364.00
2019-02-25T08:31:13.326Z,8336.00
2019-02-25T08:32:13.384Z,8336.00
2019-02-25T08:34:06.372Z,8248.00
2019-02-25T08:35:06.423Z,8228.00
2019-02-25T08:37:02.422Z,8104.00
2019-02-25T08:37:59.468Z,8124.00
2019-02-25T08:39:52.459Z,8048.00
2019-02-25T08:40:52.502Z,8016.00
2019-02-25T08:42:45.493Z,7864.00
2019-02-25T08:43:45.553Z,7840.00
2019-02-25T08:45:38.541Z,7644.00
2019-02-25T08:46:38.593Z,7660.00
2019-02-25T08:48:31.595Z,7528.00
2019-02-25T08:49:31.638Z,7452.00
2019-02-25T08:51:24.630Z,7272.00
2019-02-25T08:52:24.690Z,7164.00
2019-02-25T08:54:17.711Z,7076.00
2019-02-25T08:55:17.728Z,7072.00
2019-02-25T08:57:10.716Z,6972.00
2019-02-25T08:58:10.777Z,6904.00
2019-02-25T09:00:03.771Z,6832.00
2019-02-25T09:01:03.821Z,6724.00
2019-02-25T09:02:56.857Z,6476.00
2019-02-25T09:03:56.864Z,6428.00
2019-02-25T09:05:49.877Z,6360.00
2019-02-25T09:06:49.931Z,6156.00
2019-02-25T09:08:42.926Z,6248.00
2019-02-25T09:09:42.978Z,6284.00
2019-02-25T09:11:36.044Z,6196.00
2019-02-25T09:12:36.025Z,6228.00
2019-02-25T09:14:29.016Z,6180.00
2019-02-25T09:15:29.071Z,6132.00
2019-02-25T09:17:22.055Z,5996.00
2019-02-25T09:18:22.115Z,5872.00
2019-02-25T09:20:15.118Z,5572.00
2019-02-25T09:21:15.172Z,5404.00
2019-02-25T09:23:08.162Z,5112.00
2019-02-25T09:24:08.222Z,4944.00
2019-02-25T09:26:01.221Z,4404.00
2019-02-25T09:27:01.269Z,4032.00
2019-02-25T09:28:54.255Z,3220.00
2019-02-25T09:29:54.314Z,2952.00
2019-02-25T09:31:47.305Z,2596.00
2019-02-25T09:32:47.371Z,2576.00
2019-02-25T09:34:40.344Z,2580.00
2019-02-25T09:35:40.403Z,2576.00
2019-02-25T09:37:33.392Z,2580.00
2019-02-25T09:38:33.443Z,2580.00
2019-02-25T09:40:26.433Z,2588.00
2019-02-25T09:41:29.811Z,2592.00
2019-02-25T09:43:19.468Z,2600.00
2019-02-25T09:44:19.526Z,2604.00
2019-02-25T09:46:12.516Z,2612.00
2019-02-25T09:47:12.572Z,2608.00
2019-02-25T09:49:05.563Z,2624.00
2019-02-25T09:50:05.626Z,2624.00
2019-02-25T09:51:58.611Z,2628.00
2019-02-25T09:52:58.662Z,2620.00
2019-02-25T09:54:51.645Z,2624.00
2019-02-25T09:55:51.702Z,2620.00
2019-02-25T09:57:44.706Z,2612.00
2019-02-25T09:58:44.739Z,2608.00
2019-02-25T10:00:37.740Z,2608.00
2019-02-25T10:01:37.778Z,2608.00
2019-02-25T10:03:30.781Z,2608.00
2019-02-25T10:04:30.838Z,2612.00
2019-02-25T10:06:23.829Z,2608.00
2019-02-25T10:07:23.878Z,2608.00
2019-02-25T10:09:16.864Z,2604.00
2019-02-25T10:10:16.923Z,2604.00
2019-02-25T10:12:09.915Z,2604.00
2019-02-25T10:13:09.959Z,2608.00
2019-02-25T10:15:05.026Z,2616.00
2019-02-25T10:16:02.992Z,2620.00
2019-02-25T10:17:55.987Z,2604.00
2019-02-25T10:18:56.038Z,2600.00
2019-02-25T10:20:49.028Z,2572.00
2019-02-25T10:21:49.074Z,2568.00
2019-02-25T10:23:42.060Z,2560.00
2019-02-25T10:24:42.123Z,2552.00
2019-02-25T10:26:35.109Z,2544.00
2019-02-25T10:27:35.159Z,2540.00
2019-02-25T10:29:28.145Z,2528.00
2019-02-25T10:30:28.203Z,2532.00
2019-02-25T10:32:21.191Z,2536.00
2019-02-25T10:33:21.246Z,2536.00
2019-02-25T10:35:14.225Z,2528.00
2019-02-25T10:36:14.282Z,2512.00
2019-02-25T10:38:07.271Z,2508.00
2019-02-25T10:39:09.067Z,2508.00
2019-02-25T10:41:00.316Z,2516.00
2019-02-25T10:42:01.701Z,2504.00
2019-02-25T10:43:53.351Z,2504.00
2019-02-25T10:44:53.406Z,2516.00
2019-02-25T10:46:47.012Z,2524.00
2019-02-25T10:47:46.734Z,2528.00
2019-02-25T10:49:39.438Z,2508.00
2019-02-25T10:50:40.944Z,2512.00
2019-02-25T10:52:32.484Z,2504.00
2019-02-25T10:53:32.538Z,2504.00
2019-02-25T10:55:25.515Z,2492.00
2019-02-25T10:56:26.002Z,2492.00
2019-02-25T10:58:18.576Z,2520.00
2019-02-25T10:59:18.614Z,2516.00
2019-02-25T11:01:13.400Z,2528.00
2019-02-25T11:02:13.231Z,2532.00
2019-02-25T11:04:04.654Z,2532.00
2019-02-25T11:05:04.697Z,2532.00
2019-02-25T11:06:58.927Z,2520.00
2019-02-25T11:07:57.735Z,2528.00
2019-02-25T11:09:50.722Z,2524.00
2019-02-25T11:10:52.768Z,2520.00
2019-02-25T11:12:43.764Z,2516.00
2019-02-25T11:13:43.815Z,2516.00
2019-02-25T11:15:37.453Z,2516.00
2019-02-25T11:16:36.850Z,2504.00
2019-02-25T11:18:29.843Z,2508.00
2019-02-25T11:19:30.777Z,2504.00
2019-02-25T11:21:22.873Z,2504.00
2019-02-25T11:22:22.938Z,2500.00
2019-02-25T11:24:16.684Z,2488.00
2019-02-25T11:25:15.973Z,2500.00
2019-02-25T11:27:08.972Z,2512.00
2019-02-25T11:28:09.838Z,2508.00
2019-02-25T11:30:01.998Z,2460.00
2019-02-25T11:31:02.053Z,2420.00
2019-02-25T11:32:56.220Z,2508.00
2019-02-25T11:33:56.430Z,2524.00
2019-02-25T11:35:48.155Z,2540.00
2019-02-25T11:36:50.230Z,2544.00
2019-02-25T11:38:41.119Z,2560.00
2019-02-25T11:39:41.172Z,2572.00
2019-02-25T11:41:34.991Z,2604.00
2019-02-25T11:42:34.217Z,2612.00
2019-02-25T11:44:31.209Z,2632.00
2019-02-25T11:45:27.268Z,2644.00
2019-02-25T11:47:20.245Z,2656.00
2019-02-25T11:48:20.298Z,2664.00
2019-02-25T11:50:13.289Z,2664.00
2019-02-25T11:51:13.347Z,2660.00
2019-02-25T11:53:06.338Z,2648.00
2019-02-25T11:54:06.389Z,2652.00
2019-02-25T11:55:59.892Z,2664.00
2019-02-25T11:56:59.942Z,2668.00
2019-02-25T11:58:52.920Z,2672.00
2019-02-25T11:59:52.978Z,2668.00
2019-02-25T12:01:45.969Z,2652.00
2019-02-25T12:02:46.024Z,2648.00
2019-02-25T12:04:39.006Z,2640.00
2019-02-25T12:05:39.063Z,2636.00
2019-02-25T12:07:32.051Z,2628.00
2019-02-25T12:08:32.107Z,2620.00
2019-02-25T12:10:25.086Z,2612.00
2019-02-25T12:11:25.147Z,2600.00
2019-02-25T12:13:18.143Z,2576.00
2019-02-25T12:14:18.200Z,2556.00
2019-02-25T12:16:11.189Z,2536.00
2019-02-25T12:17:11.238Z,2524.00
2019-02-25T12:19:04.224Z,2476.00
2019-02-25T12:20:04.283Z,2468.00
2019-02-25T12:21:57.273Z,2476.00
2019-02-25T12:22:57.327Z,2472.00
2019-02-25T12:24:50.311Z,2476.00
2019-02-25T12:25:50.362Z,2488.00
2019-02-25T12:27:43.360Z,2500.00
2019-02-25T12:28:43.408Z,2496.00
2019-02-25T12:30:36.389Z,2464.00
2019-02-25T12:31:36.453Z,2500.00
2019-02-25T12:33:29.443Z,2468.00
2019-02-25T12:34:29.500Z,2464.00
2019-02-25T12:36:22.492Z,2512.00
2019-02-25T12:37:22.545Z,2520.00
2019-02-25T12:39:15.530Z,2520.00
2019-02-25T12:40:15.591Z,2528.00
2019-02-25T12:42:08.584Z,2552.00
2019-02-25T12:43:08.636Z,2556.00
2019-02-25T12:45:01.636Z,2556.00
2019-02-25T12:46:01.678Z,2556.00
2019-02-25T12:47:54.673Z,2544.00
2019-02-25T12:48:54.726Z,2532.00
2019-02-25T12:50:47.711Z,2532.00
2019-02-25T12:51:47.769Z,2540.00
2019-02-25T12:53:40.769Z,2564.00
2019-02-25T12:54:40.837Z,2568.00
2019-02-25T12:56:34.326Z,2588.00
2019-02-25T12:57:34.374Z,2604.00
2019-02-25T12:59:27.364Z,2628.00
2019-02-25T13:00:27.427Z,2644.00
2019-02-25T13:02:20.420Z,2676.00
2019-02-25T13:03:20.473Z,2700.00
2019-02-25T13:05:13.485Z,2728.00
2019-02-25T13:06:13.514Z,2740.00
2019-02-25T13:08:06.507Z,2768.00
2019-02-25T13:09:06.553Z,2784.00
2019-02-25T13:10:59.569Z,2828.00
2019-02-25T13:11:59.636Z,2852.00
2019-02-25T13:13:52.664Z,2860.00
2019-02-25T13:14:52.674Z,2832.00
2019-02-25T13:16:45.668Z,2844.00
2019-02-25T13:17:45.717Z,2900.00
2019-02-25T13:19:38.704Z,2892.00
2019-02-25T13:20:38.760Z,2864.00
2019-02-25T13:22:31.753Z,2752.00
2019-02-25T13:23:31.796Z,2752.00
2019-02-25T13:25:24.785Z,2784.00
2019-02-25T13:26:24.848Z,2756.00
2019-02-25T13:28:17.839Z,2700.00
2019-02-25T13:29:17.888Z,2656.00
2019-02-25T13:31:10.873Z,2556.00
2019-02-25T13:32:10.933Z,2516.00
2019-02-25T13:34:03.916Z,2548.00
2019-02-25T13:35:03.979Z,2552.00
2019-02-25T13:36:56.971Z,2556.00
2019-02-25T13:37:57.023Z,2532.00
2019-02-25T13:39:50.010Z,2472.00
2019-02-25T13:40:50.069Z,2416.00
2019-02-25T13:42:43.059Z,2404.00
2019-02-25T13:43:43.112Z,2380.00
2019-02-25T13:45:36.096Z,2348.00
2019-02-25T13:46:36.158Z,2332.00
2019-02-25T13:48:29.648Z,2300.00
2019-02-25T13:49:29.701Z,2284.00
2019-02-25T13:51:22.688Z,2240.00
2019-02-25T13:52:22.745Z,2228.00
2019-02-25T13:54:15.739Z,2212.00
2019-02-25T13:55:15.791Z,2188.00
2019-02-25T13:57:08.784Z,2236.00
2019-02-25T13:58:08.838Z,2244.00
2019-02-25T14:00:02.673Z,2284.00
2019-02-25T14:01:02.730Z,2300.00
2019-02-25T14:02:55.726Z,2304.00
2019-02-25T14:03:55.777Z,2312.00
2019-02-25T14:05:48.770Z,2304.00
2019-02-25T14:06:48.835Z,2304.00
2019-02-25T14:08:41.814Z,2352.00
2019-02-25T14:09:41.866Z,2364.00
2019-02-25T14:11:34.866Z,2364.00
2019-02-25T14:12:34.927Z,2352.00
2019-02-25T14:14:27.915Z,2328.00
2019-02-25T14:15:27.970Z,2328.00
2019-02-25T14:17:20.963Z,2340.00
2019-02-25T14:18:21.012Z,2392.00
2019-02-25T14:20:14.005Z,2560.00
2019-02-25T14:21:14.780Z,2644.00
2019-02-25T14:23:07.047Z,2728.00
2019-02-25T14:24:07.101Z,2720.00
2019-02-25T14:26:00.112Z,2604.00
2019-02-25T14:27:00.176Z,2508.00
2019-02-25T14:28:53.168Z,2352.00
2019-02-25T14:29:53.224Z,2260.00
2019-02-25T14:31:46.209Z,2084.00
2019-02-25T14:32:46.271Z,2144.00
2019-02-25T14:34:39.263Z,2092.00
2019-02-25T14:35:39.315Z,2044.00
2019-02-25T14:37:32.306Z,1980.00
2019-02-25T14:38:34.403Z,1948.00
2019-02-25T14:40:26.911Z,1892.00
2019-02-25T14:41:25.405Z,1864.00
2019-02-25T14:43:20.657Z,1832.00
2019-02-25T14:44:18.451Z,1820.00
2019-02-25T14:46:12.161Z,1788.00
2019-02-25T14:47:20.525Z,1760.00
2019-02-25T14:49:04.500Z,1736.00
2019-02-25T14:50:04.559Z,1728.00
2019-02-25T14:51:57.540Z,1700.00
2019-02-25T14:52:57.612Z,1684.00
2019-02-25T14:54:50.592Z,1672.00
2019-02-25T14:55:53.133Z,1672.00
2019-02-25T14:57:43.892Z,1680.00
2019-02-25T14:58:45.470Z,1672.00
2019-02-25T15:00:38.134Z,1648.00
2019-02-25T15:01:36.753Z,1624.00
2019-02-25T15:03:29.744Z,1652.00
2019-02-25T15:04:29.800Z,1660.00
2019-02-25T15:06:22.786Z,1684.00
2019-02-25T15:07:22.845Z,1680.00
2019-02-25T15:09:16.246Z,1712.00
2019-02-25T15:10:15.889Z,1724.00
2019-02-25T15:12:11.440Z,1736.00
2019-02-25T15:13:10.603Z,1744.00
2019-02-25T15:15:02.614Z,1764.00
2019-02-25T15:16:01.983Z,1768.00
2019-02-25T15:17:54.973Z,1760.00
2019-02-25T15:18:55.023Z,1748.00
2019-02-25T15:20:48.980Z,1716.00
2019-02-25T15:21:49.904Z,1704.00
2019-02-25T15:23:41.074Z,1680.00
2019-02-25T15:24:43.963Z,1676.00
2019-02-25T15:26:42.563Z,1668.00
2019-02-25T15:27:34.164Z,1660.00
2019-02-25T15:29:27.156Z,1656.00
2019-02-25T15:30:29.882Z,1652.00
2019-02-25T15:32:20.191Z,1652.00
2019-02-25T15:33:20.257Z,1652.00
2019-02-25T15:35:13.247Z,1652.00
2019-02-25T15:36:15.243Z,1660.00
2019-02-25T15:38:06.300Z,1664.00
2019-02-25T15:39:06.352Z,1668.00
2019-02-25T15:41:00.031Z,1684.00
2019-02-25T15:41:59.396Z,1692.00
2019-02-25T15:43:52.388Z,1720.00
2019-02-25T15:44:53.430Z,1732.00
2019-02-25T15:46:45.454Z,1740.00
2019-02-25T15:47:46.941Z,1736.00
2019-02-25T15:49:38.473Z,1736.00
2019-02-25T15:50:38.529Z,1728.00
2019-02-25T15:52:39.727Z,1708.00
2019-02-25T15:53:31.596Z,1696.00
2019-02-25T15:55:25.563Z,1672.00
2019-02-25T15:56:24.645Z,1648.00
2019-02-25T15:58:17.632Z,1620.00
2019-02-25T15:59:17.695Z,1600.00
2019-02-25T16:01:10.687Z,1560.00
2019-02-25T16:02:14.223Z,1544.00
2019-02-25T16:04:04.682Z,1500.00
2019-02-25T16:05:05.780Z,1472.00
2019-02-25T16:06:57.558Z,1412.00
2019-02-25T16:07:57.946Z,1380.00
2019-02-25T16:09:49.823Z,1316.00
2019-02-25T16:10:51.289Z,1280.00
2019-02-25T16:12:42.867Z,1224.00
2019-02-25T16:13:42.924Z,1196.00
2019-02-25T16:15:35.927Z,1156.00
2019-02-25T16:16:35.968Z,1124.00
2019-02-25T16:18:28.949Z,1076.00
2019-02-25T16:19:41.145Z,1048.00
2019-02-25T16:21:22.014Z,996.00
2019-02-25T16:22:22.057Z,964.00
2019-02-25T16:24:16.519Z,908.00
2019-02-25T16:25:15.103Z,884.00
2019-02-25T16:27:08.085Z,840.00
2019-02-25T16:28:10.297Z,820.00
2019-02-25T16:30:02.947Z,776.00
2019-02-25T16:31:01.187Z,752.00
2019-02-25T16:32:54.175Z,712.00
2019-02-25T16:33:55.514Z,692.00
2019-02-25T16:35:47.244Z,656.00
2019-02-25T16:36:51.489Z,632.00
2019-02-25T16:38:40.277Z,600.00
2019-02-25T16:39:40.339Z,584.00
2019-02-25T16:41:34.708Z,548.00
2019-02-25T16:42:34.760Z,528.00
2019-02-25T16:44:26.380Z,492.00
2019-02-25T16:45:29.202Z,472.00
2019-02-25T16:47:31.908Z,436.00
2019-02-25T16:48:23.543Z,416.00
2019-02-25T16:50:14.206Z,376.00
2019-02-25T16:51:12.698Z,356.00
2019-02-25T16:53:07.945Z,312.00
2019-02-25T16:54:09.122Z,292.00
2019-02-25T16:55:59.086Z,256.00
2019-02-25T16:56:59.170Z,236.00
2019-02-25T16:58:52.630Z,208.00
2019-02-25T16:59:53.780Z,192.00
2019-02-25T17:01:45.173Z,160.00
2019-02-25T17:02:45.226Z,144.00
2019-02-25T17:04:38.206Z,120.00
2019-02-25T17:05:40.266Z,108.00
2019-02-25T17:07:31.244Z,84.00
2019-02-25T17:08:32.398Z,76.00
2019-02-25T17:10:26.614Z,60.00
2019-02-25T17:11:24.344Z,56.00
2019-02-25T17:13:17.330Z,40.00
2019-02-25T17:14:19.029Z,36.00
2019-02-25T17:16:18.053Z,24.00
2019-02-25T17:17:10.439Z,24.00
2019-02-25T17:19:03.418Z,20.00
2019-02-25T17:20:03.477Z,12.00
2019-02-25T17:21:57.969Z,8.00
2019-02-25T17:22:59.679Z,12.00
2019-02-25T17:24:52.446Z,8.00
2019-02-25T17:25:51.068Z,4.00
2019-02-25T17:27:45.663Z,0.00
2019-02-25T17:28:44.109Z,4.00
2019-02-25T17:30:38.572Z,4.00
2019-02-25T17:31:38.673Z,4.00
2019-02-25T17:33:30.931Z,0.00
2019-02-25T17:34:30.203Z,0.00
2019-02-25T17:36:23.193Z,0.00
2019-02-25T17:37:23.242Z,0.00
2019-02-25T17:39:17.138Z,0.00
2019-02-25T17:40:16.307Z,0.00
2019-02-25T17:42:09.284Z,0.00
2019-02-25T17:43:11.084Z,0.00
2019-02-25T17:45:04.591Z,0.00
2019-02-25T17:46:05.185Z,0.00
2019-02-25T17:47:58.453Z,0.00
2019-02-25T17:48:55.419Z,0.00
2019-02-25T17:50:48.940Z,0.00
2019-02-25T17:51:49.537Z,0.00
2019-02-25T17:53:41.464Z,0.00
2019-02-25T17:54:41.516Z,0.00
2019-02-25T17:56:36.069Z,0.00
2019-02-25T17:57:37.380Z,0.00
2019-02-25T17:59:31.508Z,0.00
2019-02-25T18:00:29.950Z,0.00
2019-02-25T18:02:22.151Z,0.00
2019-02-25T18:03:23.869Z,0.00
2019-02-25T18:05:16.915Z,0.00
2019-02-25T18:06:15.201Z,0.00
2019-02-25T18:08:10.024Z,0.00